sensor_id;sensor_type;location;lat;lon;timestamp;P1;durP1;ratioP1;P2;durP2;ratioP2
41966;SDS011;27656;53.068;8.818;2023-04-24T10:40:44;12.37;;;8.93;;
41966;SDS011;27656;53.068;8.818;2023-04-24T10:43:11;9.70;;;8.70;;
41966;SDS011;27656;53.068;8.818;2023-04-24T10:45:43;11.33;;;8.23;;
41966;SDS011;27656;53.068;8.818;2023-04-24T10:48:27;10.43;;;8.53;;
41966;SDS011;27656;53.068;8.818;2023-04-24T10:50:53;10.47;;;8.83;;
41966;SDS011;27656;53.068;8.818;2023-04-24T10:53:21;10.27;;;7.40;;
41966;SDS011;27656;53.068;8.818;2023-04-24T10:56:02;9.50;;;8.37;;
41966;SDS011;27656;53.068;8.818;2023-04-24T10:59:11;9.70;;;8.30;;
41966;SDS011;27656;53.068;8.818;2023-04-24T11:01:23;11.30;;;8.07;;
41966;SDS011;27656;53.068;8.818;2023-04-24T11:03:57;8.63;;;6.67;;
41966;SDS011;27656;53.068;8.818;2023-04-24T11:06:28;9.53;;;7.20;;
41966;SDS011;27656;53.068;8.818;2023-04-24T11:09:04;8.77;;;7.27;;
41966;SDS011;27656;53.068;8.818;2023-04-24T11:11:32;9.33;;;6.77;;
41966;SDS011;27656;53.068;8.818;2023-04-24T11:29:38;7.73;;;6.63;;
41966;SDS011;27656;53.068;8.818;2023-04-24T11:32:15;10.07;;;6.97;;
41966;SDS011;27656;53.068;8.818;2023-04-24T11:35:05;6.63;;;5.80;;
41966;SDS011;27656;53.068;8.818;2023-04-24T11:37:36;7.07;;;6.07;;
41966;SDS011;27656;53.068;8.818;2023-04-24T11:40:07;5.87;;;5.37;;
41966;SDS011;27656;53.068;8.818;2023-04-24T11:42:35;5.50;;;5.00;;
41966;SDS011;27656;53.068;8.818;2023-04-24T11:45:06;7.23;;;5.97;;
41966;SDS011;27656;53.068;8.818;2023-04-24T11:47:33;7.47;;;5.43;;
41966;SDS011;27656;53.068;8.818;2023-04-24T11:50:00;6.43;;;5.80;;
41966;SDS011;27656;53.068;8.818;2023-04-24T11:52:28;9.03;;;5.93;;
41966;SDS011;27656;53.068;8.818;2023-04-24T11:54:55;6.73;;;5.63;;
41966;SDS011;27656;53.068;8.818;2023-04-24T11:57:23;9.03;;;5.90;;
41966;SDS011;27656;53.068;8.818;2023-04-24T11:59:52;8.63;;;5.43;;
41966;SDS011;27656;53.068;8.818;2023-04-24T12:02:20;8.43;;;5.90;;
41966;SDS011;27656;53.068;8.818;2023-04-24T13:13:52;12.00;;;7.20;;
41966;SDS011;27656;53.068;8.818;2023-04-24T13:16:20;12.63;;;8.30;;
41966;SDS011;27656;53.068;8.818;2023-04-24T13:18:47;14.43;;;9.80;;
41966;SDS011;27656;53.068;8.818;2023-04-24T13:23:40;13.20;;;9.00;;
41966;SDS011;27656;53.068;8.818;2023-04-24T13:26:07;12.27;;;8.80;;
41966;SDS011;27656;53.068;8.818;2023-04-24T13:28:34;12.63;;;8.93;;
41966;SDS011;27656;53.068;8.818;2023-04-24T13:31:01;15.33;;;9.60;;
41966;SDS011;27656;53.068;8.818;2023-04-24T13:33:27;13.53;;;9.23;;
41966;SDS011;27656;53.068;8.818;2023-04-24T13:35:54;12.03;;;7.47;;
41966;SDS011;27656;53.068;8.818;2023-04-24T13:38:20;9.70;;;5.97;;
41966;SDS011;27656;53.068;8.818;2023-04-24T14:29:41;12.43;;;4.07;;
41966;SDS011;27656;53.068;8.818;2023-04-24T14:32:08;9.47;;;3.80;;
41966;SDS011;27656;53.068;8.818;2023-04-24T14:34:35;14.17;;;4.07;;
41966;SDS011;27656;53.068;8.818;2023-04-24T14:37:01;9.10;;;4.57;;
41966;SDS011;27656;53.068;8.818;2023-04-24T14:39:28;10.07;;;4.00;;
41966;SDS011;27656;53.068;8.818;2023-04-24T14:41:54;10.07;;;3.80;;
41966;SDS011;27656;53.068;8.818;2023-04-24T14:44:21;7.50;;;3.70;;
41966;SDS011;27656;53.068;8.818;2023-04-24T14:46:48;8.23;;;4.10;;
41966;SDS011;27656;53.068;8.818;2023-04-24T14:49:15;8.80;;;3.97;;
41966;SDS011;27656;53.068;8.818;2023-04-24T14:51:41;6.73;;;3.70;;
41966;SDS011;27656;53.068;8.818;2023-04-24T14:54:08;8.57;;;4.27;;
41966;SDS011;27656;53.068;8.818;2023-04-24T14:56:35;13.23;;;5.63;;
41966;SDS011;27656;53.068;8.818;2023-04-24T14:59:02;11.07;;;4.70;;
41966;SDS011;27656;53.068;8.818;2023-04-24T15:01:29;11.03;;;4.17;;
41966;SDS011;27656;53.068;8.818;2023-04-24T15:03:55;15.33;;;4.77;;
41966;SDS011;27656;53.068;8.818;2023-04-24T15:06:22;11.10;;;3.93;;
41966;SDS011;27656;53.068;8.818;2023-04-24T15:08:48;7.10;;;3.97;;
41966;SDS011;27656;53.068;8.818;2023-04-24T15:11:16;10.50;;;4.40;;
41966;SDS011;27656;53.068;8.818;2023-04-24T15:13:42;10.67;;;4.70;;
41966;SDS011;27656;53.068;8.818;2023-04-24T15:16:11;10.60;;;4.80;;
41966;SDS011;27656;53.068;8.818;2023-04-24T15:18:38;8.90;;;4.73;;
41966;SDS011;27656;53.068;8.818;2023-04-24T15:21:04;10.23;;;4.73;;
41966;SDS011;27656;53.068;8.818;2023-04-24T15:23:31;11.87;;;4.93;;
41966;SDS011;27656;53.068;8.818;2023-04-24T15:25:57;8.97;;;4.10;;
41966;SDS011;27656;53.068;8.818;2023-04-24T15:28:24;9.20;;;4.50;;
41966;SDS011;27656;53.068;8.818;2023-04-24T15:30:51;12.20;;;4.90;;
41966;SDS011;27656;53.068;8.818;2023-04-24T15:33:17;9.67;;;4.20;;
41966;SDS011;27656;53.068;8.818;2023-04-24T15:35:44;11.43;;;3.83;;
41966;SDS011;27656;53.068;8.818;2023-04-24T15:38:10;6.63;;;3.50;;
41966;SDS011;27656;53.068;8.818;2023-04-24T15:40:36;5.93;;;3.17;;
41966;SDS011;27656;53.068;8.818;2023-04-24T15:43:03;8.63;;;3.87;;
41966;SDS011;27656;53.068;8.818;2023-04-24T15:45:29;4.40;;;3.53;;
41966;SDS011;27656;53.068;8.818;2023-04-24T15:47:56;7.67;;;3.93;;
41966;SDS011;27656;53.068;8.818;2023-04-24T15:50:22;9.90;;;4.57;;
41966;SDS011;27656;53.068;8.818;2023-04-24T15:52:49;12.47;;;4.97;;
41966;SDS011;27656;53.068;8.818;2023-04-24T15:55:16;9.10;;;4.30;;
41966;SDS011;27656;53.068;8.818;2023-04-24T15:57:42;12.97;;;4.80;;
41966;SDS011;27656;53.068;8.818;2023-04-24T16:00:09;8.30;;;4.40;;
41966;SDS011;27656;53.068;8.818;2023-04-24T16:02:36;10.70;;;4.50;;
41966;SDS011;27656;53.068;8.818;2023-04-24T16:05:03;8.83;;;3.57;;
41966;SDS011;27656;53.068;8.818;2023-04-24T16:07:30;9.77;;;4.03;;
41966;SDS011;27656;53.068;8.818;2023-04-24T16:09:56;7.43;;;3.50;;
41966;SDS011;27656;53.068;8.818;2023-04-24T16:12:23;9.80;;;3.90;;
41966;SDS011;27656;53.068;8.818;2023-04-24T16:14:52;5.67;;;3.33;;
41966;SDS011;27656;53.068;8.818;2023-04-24T16:17:20;7.13;;;3.20;;
41966;SDS011;27656;53.068;8.818;2023-04-24T16:19:46;8.30;;;3.00;;
41966;SDS011;27656;53.068;8.818;2023-04-24T16:22:13;6.60;;;2.67;;
41966;SDS011;27656;53.068;8.818;2023-04-24T16:24:39;9.77;;;3.53;;
41966;SDS011;27656;53.068;8.818;2023-04-24T16:27:06;7.47;;;2.87;;
41966;SDS011;27656;53.068;8.818;2023-04-24T16:29:32;7.13;;;2.73;;
41966;SDS011;27656;53.068;8.818;2023-04-24T16:31:59;8.73;;;2.57;;
41966;SDS011;27656;53.068;8.818;2023-04-24T16:34:25;8.20;;;2.97;;
41966;SDS011;27656;53.068;8.818;2023-04-24T16:36:51;6.63;;;3.00;;
41966;SDS011;27656;53.068;8.818;2023-04-24T16:39:18;8.80;;;3.10;;
41966;SDS011;27656;53.068;8.818;2023-04-24T16:41:45;8.87;;;3.10;;
41966;SDS011;27656;53.068;8.818;2023-04-24T16:44:11;7.20;;;3.17;;
41966;SDS011;27656;53.068;8.818;2023-04-24T16:46:38;6.23;;;3.53;;
41966;SDS011;27656;53.068;8.818;2023-04-24T16:49:05;7.17;;;3.60;;
41966;SDS011;27656;53.068;8.818;2023-04-24T16:51:32;7.53;;;3.80;;
41966;SDS011;27656;53.068;8.818;2023-04-24T16:53:58;4.83;;;3.50;;
41966;SDS011;27656;53.068;8.818;2023-04-24T16:56:25;5.00;;;3.30;;
41966;SDS011;27656;53.068;8.818;2023-04-24T16:58:51;7.30;;;3.20;;
41966;SDS011;27656;53.068;8.818;2023-04-24T17:01:18;11.07;;;3.63;;
41966;SDS011;27656;53.068;8.818;2023-04-24T17:03:44;7.43;;;3.10;;
41966;SDS011;27656;53.068;8.818;2023-04-24T17:06:12;8.70;;;3.57;;
41966;SDS011;27656;53.068;8.818;2023-04-24T17:08:38;4.07;;;2.90;;
41966;SDS011;27656;53.068;8.818;2023-04-24T17:11:04;5.13;;;2.50;;
41966;SDS011;27656;53.068;8.818;2023-04-24T17:13:31;9.37;;;2.90;;
41966;SDS011;27656;53.068;8.818;2023-04-24T17:15:57;7.33;;;3.13;;
41966;SDS011;27656;53.068;8.818;2023-04-24T17:18:24;4.50;;;2.63;;
41966;SDS011;27656;53.068;8.818;2023-04-24T17:20:50;3.77;;;2.13;;
41966;SDS011;27656;53.068;8.818;2023-04-24T17:23:16;7.40;;;2.77;;
41966;SDS011;27656;53.068;8.818;2023-04-24T17:25:43;5.83;;;2.77;;
41966;SDS011;27656;53.068;8.818;2023-04-24T17:31:05;6.73;;;2.60;;
41966;SDS011;27656;53.068;8.818;2023-04-24T17:33:32;6.27;;;2.43;;
41966;SDS011;27656;53.068;8.818;2023-04-24T17:35:59;6.90;;;2.63;;
41966;SDS011;27656;53.068;8.818;2023-04-24T17:38:27;7.37;;;3.27;;
41966;SDS011;27656;53.068;8.818;2023-04-24T17:40:54;7.43;;;2.37;;
41966;SDS011;27656;53.068;8.818;2023-04-24T17:43:21;8.87;;;2.93;;
41966;SDS011;27656;53.068;8.818;2023-04-24T17:45:49;8.50;;;2.50;;
41966;SDS011;27656;53.068;8.818;2023-04-24T17:48:17;8.33;;;2.63;;
41966;SDS011;27656;53.068;8.818;2023-04-24T17:50:44;7.97;;;2.50;;
41966;SDS011;27656;53.068;8.818;2023-04-24T17:53:11;10.10;;;2.87;;
41966;SDS011;27656;53.068;8.818;2023-04-24T17:55:40;6.67;;;2.37;;
41966;SDS011;27656;53.068;8.818;2023-04-24T17:58:08;8.33;;;2.70;;
41966;SDS011;27656;53.068;8.818;2023-04-24T18:00:35;6.40;;;2.20;;
41966;SDS011;27656;53.068;8.818;2023-04-24T18:03:02;7.27;;;2.27;;
41966;SDS011;27656;53.068;8.818;2023-04-24T18:05:30;6.90;;;2.27;;
41966;SDS011;27656;53.068;8.818;2023-04-24T18:07:57;4.50;;;2.07;;
41966;SDS011;27656;53.068;8.818;2023-04-24T18:10:24;7.80;;;2.60;;
41966;SDS011;27656;53.068;8.818;2023-04-24T18:12:50;9.83;;;2.40;;
41966;SDS011;27656;53.068;8.818;2023-04-24T18:15:17;7.57;;;2.43;;
41966;SDS011;27656;53.068;8.818;2023-04-24T18:17:44;8.37;;;2.47;;
41966;SDS011;27656;53.068;8.818;2023-04-24T18:20:11;11.50;;;2.23;;
41966;SDS011;27656;53.068;8.818;2023-04-24T18:22:38;10.30;;;2.53;;
41966;SDS011;27656;53.068;8.818;2023-04-24T18:25:05;6.43;;;2.40;;
41966;SDS011;27656;53.068;8.818;2023-04-24T18:27:32;9.17;;;3.30;;
41966;SDS011;27656;53.068;8.818;2023-04-24T18:29:59;10.00;;;2.90;;
41966;SDS011;27656;53.068;8.818;2023-04-24T18:32:25;11.30;;;3.03;;
41966;SDS011;27656;53.068;8.818;2023-04-24T18:34:52;17.10;;;3.23;;
41966;SDS011;27656;53.068;8.818;2023-04-24T18:37:18;7.27;;;2.80;;
41966;SDS011;27656;53.068;8.818;2023-04-24T18:39:45;12.53;;;3.03;;
41966;SDS011;27656;53.068;8.818;2023-04-24T18:42:11;8.17;;;2.57;;
41966;SDS011;27656;53.068;8.818;2023-04-24T18:44:38;9.33;;;2.70;;
41966;SDS011;27656;53.068;8.818;2023-04-24T18:47:06;10.23;;;3.27;;
41966;SDS011;27656;53.068;8.818;2023-04-24T18:49:33;9.37;;;2.80;;
41966;SDS011;27656;53.068;8.818;2023-04-24T18:51:59;11.50;;;3.07;;
41966;SDS011;27656;53.068;8.818;2023-04-24T18:54:27;9.67;;;3.10;;
41966;SDS011;27656;53.068;8.818;2023-04-24T18:56:53;7.73;;;3.10;;
41966;SDS011;27656;53.068;8.818;2023-04-24T18:59:20;7.07;;;3.43;;
41966;SDS011;27656;53.068;8.818;2023-04-24T19:01:46;7.27;;;3.03;;
41966;SDS011;27656;53.068;8.818;2023-04-24T19:04:12;8.30;;;3.07;;
41966;SDS011;27656;53.068;8.818;2023-04-24T19:06:40;8.93;;;2.90;;
41966;SDS011;27656;53.068;8.818;2023-04-24T19:09:07;14.10;;;3.50;;
41966;SDS011;27656;53.068;8.818;2023-04-24T19:11:33;6.47;;;2.90;;
41966;SDS011;27656;53.068;8.818;2023-04-24T19:14:00;9.40;;;2.93;;
41966;SDS011;27656;53.068;8.818;2023-04-24T19:16:29;7.43;;;3.23;;
41966;SDS011;27656;53.068;8.818;2023-04-24T19:18:56;8.67;;;3.13;;
41966;SDS011;27656;53.068;8.818;2023-04-24T19:21:22;9.07;;;3.10;;
41966;SDS011;27656;53.068;8.818;2023-04-24T19:23:48;10.07;;;3.50;;
41966;SDS011;27656;53.068;8.818;2023-04-24T19:26:20;6.17;;;2.83;;
41966;SDS011;27656;53.068;8.818;2023-04-24T19:28:47;8.83;;;3.23;;
41966;SDS011;27656;53.068;8.818;2023-04-24T19:31:15;7.60;;;2.93;;
41966;SDS011;27656;53.068;8.818;2023-04-24T19:33:41;6.53;;;3.13;;
41966;SDS011;27656;53.068;8.818;2023-04-24T19:36:08;14.10;;;3.37;;
41966;SDS011;27656;53.068;8.818;2023-04-24T19:38:35;9.37;;;3.10;;
41966;SDS011;27656;53.068;8.818;2023-04-24T19:41:01;6.47;;;3.17;;
41966;SDS011;27656;53.068;8.818;2023-04-24T19:43:28;9.10;;;3.00;;
41966;SDS011;27656;53.068;8.818;2023-04-24T19:45:55;6.93;;;2.73;;
41966;SDS011;27656;53.068;8.818;2023-04-24T19:48:23;10.03;;;3.77;;
41966;SDS011;27656;53.068;8.818;2023-04-24T19:50:49;7.67;;;3.20;;
41966;SDS011;27656;53.068;8.818;2023-04-24T19:53:16;12.73;;;3.33;;
41966;SDS011;27656;53.068;8.818;2023-04-24T19:55:42;11.77;;;3.23;;
41966;SDS011;27656;53.068;8.818;2023-04-24T19:58:09;7.43;;;3.50;;
41966;SDS011;27656;53.068;8.818;2023-04-24T20:00:35;8.70;;;3.50;;
41966;SDS011;27656;53.068;8.818;2023-04-24T20:03:02;7.20;;;3.23;;
41966;SDS011;27656;53.068;8.818;2023-04-24T20:05:28;10.30;;;3.57;;
41966;SDS011;27656;53.068;8.818;2023-04-24T20:07:55;6.40;;;2.77;;
41966;SDS011;27656;53.068;8.818;2023-04-24T20:10:21;10.10;;;3.20;;
41966;SDS011;27656;53.068;8.818;2023-04-24T20:12:48;10.93;;;2.87;;
41966;SDS011;27656;53.068;8.818;2023-04-24T20:15:15;9.63;;;3.30;;
41966;SDS011;27656;53.068;8.818;2023-04-24T20:17:41;4.50;;;2.60;;
41966;SDS011;27656;53.068;8.818;2023-04-24T20:20:08;6.60;;;3.27;;
41966;SDS011;27656;53.068;8.818;2023-04-24T20:22:35;6.90;;;2.70;;
41966;SDS011;27656;53.068;8.818;2023-04-24T20:25:08;6.50;;;3.30;;
41966;SDS011;27656;53.068;8.818;2023-04-24T20:27:36;8.03;;;3.10;;
41966;SDS011;27656;53.068;8.818;2023-04-24T20:30:03;9.43;;;3.57;;
41966;SDS011;27656;53.068;8.818;2023-04-24T20:32:29;12.90;;;3.10;;
41966;SDS011;27656;53.068;8.818;2023-04-24T20:34:57;10.63;;;3.00;;
41966;SDS011;27656;53.068;8.818;2023-04-24T20:37:23;10.37;;;3.50;;
41966;SDS011;27656;53.068;8.818;2023-04-24T20:39:50;8.53;;;3.20;;
41966;SDS011;27656;53.068;8.818;2023-04-24T20:42:17;6.00;;;3.40;;
41966;SDS011;27656;53.068;8.818;2023-04-24T20:44:43;11.03;;;2.80;;
41966;SDS011;27656;53.068;8.818;2023-04-24T20:47:10;8.43;;;2.83;;
41966;SDS011;27656;53.068;8.818;2023-04-24T20:49:37;7.57;;;2.50;;
41966;SDS011;27656;53.068;8.818;2023-04-24T20:52:04;5.67;;;3.00;;
41966;SDS011;27656;53.068;8.818;2023-04-24T20:54:31;6.30;;;3.10;;
41966;SDS011;27656;53.068;8.818;2023-04-24T20:56:57;9.70;;;3.27;;
41966;SDS011;27656;53.068;8.818;2023-04-24T20:59:24;9.93;;;3.90;;
41966;SDS011;27656;53.068;8.818;2023-04-24T21:01:50;6.67;;;2.93;;
41966;SDS011;27656;53.068;8.818;2023-04-24T21:04:17;5.67;;;2.70;;
41966;SDS011;27656;53.068;8.818;2023-04-24T21:06:44;6.00;;;3.33;;
41966;SDS011;27656;53.068;8.818;2023-04-24T21:09:10;8.27;;;2.90;;
41966;SDS011;27656;53.068;8.818;2023-04-24T21:11:36;6.73;;;2.77;;
41966;SDS011;27656;53.068;8.818;2023-04-24T21:14:03;6.10;;;3.20;;
41966;SDS011;27656;53.068;8.818;2023-04-24T21:16:29;7.93;;;3.17;;
41966;SDS011;27656;53.068;8.818;2023-04-24T21:18:56;6.53;;;2.67;;
41966;SDS011;27656;53.068;8.818;2023-04-24T21:21:22;4.90;;;2.63;;
41966;SDS011;27656;53.068;8.818;2023-04-24T21:23:50;8.17;;;2.87;;
41966;SDS011;27656;53.068;8.818;2023-04-24T21:26:16;7.83;;;2.90;;
41966;SDS011;27656;53.068;8.818;2023-04-24T21:28:43;8.93;;;3.03;;
41966;SDS011;27656;53.068;8.818;2023-04-24T21:31:09;5.60;;;2.73;;
41966;SDS011;27656;53.068;8.818;2023-04-24T21:33:36;9.30;;;3.30;;
41966;SDS011;27656;53.068;8.818;2023-04-24T21:36:03;10.60;;;3.30;;
41966;SDS011;27656;53.068;8.818;2023-04-24T21:38:29;8.13;;;3.10;;
41966;SDS011;27656;53.068;8.818;2023-04-24T21:40:56;6.63;;;2.80;;
41966;SDS011;27656;53.068;8.818;2023-04-24T21:43:22;8.67;;;3.07;;
41966;SDS011;27656;53.068;8.818;2023-04-24T21:45:58;4.37;;;2.90;;
41966;SDS011;27656;53.068;8.818;2023-04-24T21:48:25;8.07;;;3.10;;
41966;SDS011;27656;53.068;8.818;2023-04-24T21:50:51;6.87;;;3.40;;
41966;SDS011;27656;53.068;8.818;2023-04-24T21:53:18;5.17;;;2.77;;
41966;SDS011;27656;53.068;8.818;2023-04-24T21:55:44;4.33;;;2.97;;
41966;SDS011;27656;53.068;8.818;2023-04-24T21:58:11;5.67;;;2.90;;
41966;SDS011;27656;53.068;8.818;2023-04-24T22:00:37;8.67;;;3.77;;
41966;SDS011;27656;53.068;8.818;2023-04-24T22:03:04;6.73;;;3.50;;
41966;SDS011;27656;53.068;8.818;2023-04-24T22:05:31;6.93;;;3.30;;
41966;SDS011;27656;53.068;8.818;2023-04-24T22:07:57;8.43;;;3.53;;
41966;SDS011;27656;53.068;8.818;2023-04-24T22:10:26;8.20;;;3.40;;
41966;SDS011;27656;53.068;8.818;2023-04-24T22:12:53;6.10;;;3.20;;
41966;SDS011;27656;53.068;8.818;2023-04-24T22:15:19;6.67;;;3.00;;
41966;SDS011;27656;53.068;8.818;2023-04-24T22:17:46;7.13;;;3.57;;
41966;SDS011;27656;53.068;8.818;2023-04-24T22:20:14;6.60;;;3.53;;
41966;SDS011;27656;53.068;8.818;2023-04-24T22:22:44;8.67;;;3.50;;
41966;SDS011;27656;53.068;8.818;2023-04-24T22:25:10;6.83;;;3.40;;
41966;SDS011;27656;53.068;8.818;2023-04-24T22:27:37;4.67;;;3.03;;
41966;SDS011;27656;53.068;8.818;2023-04-24T22:30:03;3.90;;;2.73;;
41966;SDS011;27656;53.068;8.818;2023-04-24T22:32:31;7.63;;;3.40;;
41966;SDS011;27656;53.068;8.818;2023-04-24T22:34:58;6.90;;;3.77;;
41966;SDS011;27656;53.068;8.818;2023-04-24T22:37:24;6.13;;;3.17;;
41966;SDS011;27656;53.068;8.818;2023-04-24T22:39:51;7.80;;;3.80;;
41966;SDS011;27656;53.068;8.818;2023-04-24T22:42:17;9.03;;;3.57;;
41966;SDS011;27656;53.068;8.818;2023-04-24T22:44:43;12.30;;;3.30;;
41966;SDS011;27656;53.068;8.818;2023-04-24T22:47:10;7.00;;;3.53;;
41966;SDS011;27656;53.068;8.818;2023-04-24T22:49:36;11.57;;;3.67;;
41966;SDS011;27656;53.068;8.818;2023-04-24T22:52:03;9.43;;;3.53;;
41966;SDS011;27656;53.068;8.818;2023-04-24T22:54:30;9.87;;;3.57;;
41966;SDS011;27656;53.068;8.818;2023-04-24T22:56:58;13.27;;;4.30;;
41966;SDS011;27656;53.068;8.818;2023-04-24T22:59:25;8.80;;;3.77;;
41966;SDS011;27656;53.068;8.818;2023-04-24T23:01:51;11.10;;;3.90;;
41966;SDS011;27656;53.068;8.818;2023-04-24T23:04:18;8.60;;;3.80;;
41966;SDS011;27656;53.068;8.818;2023-04-24T23:06:45;8.77;;;4.40;;
41966;SDS011;27656;53.068;8.818;2023-04-24T23:09:11;7.63;;;4.20;;
41966;SDS011;27656;53.068;8.818;2023-04-24T23:11:37;6.73;;;3.50;;
41966;SDS011;27656;53.068;8.818;2023-04-24T23:14:04;8.67;;;4.00;;
41966;SDS011;27656;53.068;8.818;2023-04-24T23:16:30;8.83;;;3.83;;
41966;SDS011;27656;53.068;8.818;2023-04-24T23:18:57;10.83;;;4.10;;
41966;SDS011;27656;53.068;8.818;2023-04-24T23:21:23;15.97;;;4.23;;
41966;SDS011;27656;53.068;8.818;2023-04-24T23:23:51;10.27;;;4.17;;
41966;SDS011;27656;53.068;8.818;2023-04-24T23:26:17;10.00;;;4.63;;
41966;SDS011;27656;53.068;8.818;2023-04-24T23:28:44;10.60;;;4.87;;
41966;SDS011;27656;53.068;8.818;2023-04-24T23:31:10;9.27;;;4.57;;
41966;SDS011;27656;53.068;8.818;2023-04-24T23:33:37;8.23;;;4.63;;
41966;SDS011;27656;53.068;8.818;2023-04-24T23:36:03;12.73;;;4.20;;
41966;SDS011;27656;53.068;8.818;2023-04-24T23:38:30;13.30;;;4.53;;
41966;SDS011;27656;53.068;8.818;2023-04-24T23:41:14;8.43;;;4.90;;
41966;SDS011;27656;53.068;8.818;2023-04-24T23:43:41;8.80;;;4.43;;
41966;SDS011;27656;53.068;8.818;2023-04-24T23:46:07;8.57;;;4.30;;
41966;SDS011;27656;53.068;8.818;2023-04-24T23:48:34;12.03;;;5.13;;
41966;SDS011;27656;53.068;8.818;2023-04-24T23:51:02;11.03;;;4.70;;
41966;SDS011;27656;53.068;8.818;2023-04-24T23:53:28;14.27;;;4.80;;
41966;SDS011;27656;53.068;8.818;2023-04-24T23:55:55;12.10;;;4.40;;
41966;SDS011;27656;53.068;8.818;2023-04-24T23:58:22;18.50;;;4.40;;
